Time;durP1;ratioP1;P1;durP2;ratioP2;P2;SDS_P1;SDS_P2;PMS_P1;PMS_P2;Temp;Humidity;BMP_temperature;BMP_pressure;BME280_temperature;BME280_humidity;BME280_pressure;Samples;Min_cycle;Max_cycle;Signal;HPM_P1;HPM_P2
2022/07/07 00:01:51;;;;;;;13.18;11.88;;;;;;;24.36;80.57;100137.00;5004579;28;20060;-77
2022/07/07 00:04:16;;;;;;;13.10;11.90;;;;;;;24.59;79.85;100160.16;5008662;28;20030;-77
2022/07/07 00:06:42;;;;;;;13.68;12.30;;;;;;;24.66;79.54;100155.59;5012124;28;20029;-82
2022/07/07 00:09:08;;;;;;;12.82;11.63;;;;;;;24.63;79.31;100153.03;5011703;28;20030;-80
2022/07/07 00:11:33;;;;;;;13.23;11.77;;;;;;;24.47;79.96;100142.00;5012376;28;20470;-78
2022/07/07 00:13:59;;;;;;;13.55;12.25;;;;;;;24.46;79.91;100132.34;5011819;28;20541;-78
2022/07/07 00:16:25;;;;;;;13.80;12.50;;;;;;;24.72;79.67;100144.88;5011887;28;20118;-78
2022/07/07 00:18:51;;;;;;;13.30;12.07;;;;;;;24.72;78.65;100126.41;4994151;28;20466;-81
2022/07/07 00:21:16;;;;;;;14.13;12.73;;;;;;;24.82;78.13;100135.81;5010097;28;20036;-77
2022/07/07 00:23:43;;;;;;;14.80;12.63;;;;;;;24.91;78.01;100155.81;4994171;28;20028;-77
2022/07/07 00:26:08;;;;;;;15.02;13.57;;;;;;;23.64;77.91;99963.88;5011861;28;20025;-77
2022/07/07 00:28:34;;;;;;;14.43;13.10;;;;;;;24.58;78.16;100134.66;5011254;28;20022;-78
2022/07/07 00:30:59;;;;;;;14.25;12.95;;;;;;;24.58;79.25;100161.06;5011337;28;20034;-76
2022/07/07 00:33:25;;;;;;;15.23;13.73;;;;;;;24.11;80.24;100089.28;5011194;28;20052;-78
2022/07/07 00:35:51;;;;;;;15.18;13.68;;;;;;;24.49;80.59;100148.13;5132804;23;20046;31
2022/07/07 00:38:17;;;;;;;14.52;13.13;;;;;;;24.33;80.70;100132.66;4949637;28;20059;-78
2022/07/07 00:40:42;;;;;;;14.68;13.27;;;;;;;24.49;80.79;100142.84;4936959;29;20470;-81
2022/07/07 00:43:08;;;;;;;14.80;13.35;;;;;;;24.62;80.45;100156.56;4935812;29;20027;-79
2022/07/07 00:45:33;;;;;;;14.90;13.48;;;;;;;24.55;80.61;100150.59;4946499;28;20035;-80
2022/07/07 00:47:59;;;;;;;15.82;13.00;;;;;;;24.26;80.24;100109.97;4964418;28;20027;-78
2022/07/07 00:50:25;;;;;;;15.13;13.15;;;;;;;24.34;80.84;100155.50;4962970;28;20070;-78
2022/07/07 00:52:51;;;;;;;15.00;13.40;;;;;;;24.27;80.76;100131.97;4983950;28;20027;-78
2022/07/07 00:55:17;;;;;;;14.80;13.35;;;;;;;24.49;80.17;100148.97;4972470;28;20042;-79
2022/07/07 00:57:42;;;;;;;15.57;13.88;;;;;;;24.48;79.98;100157.78;4972131;28;20478;-78
2022/07/07 01:00:11;;;;;;;15.93;14.23;;;;;;;24.36;80.34;100148.44;4945580;28;20030;-78
2022/07/07 01:02:38;;;;;;;15.50;14.05;;;;;;;24.24;81.28;100146.09;4972911;28;20061;-80
2022/07/07 01:05:07;;;;;;;16.42;13.80;;;;;;;24.16;81.01;100141.00;4971748;28;20113;-80
2022/07/07 01:07:33;;;;;;;15.98;14.38;;;;;;;24.11;82.39;100147.28;4974650;28;20031;-78
2022/07/07 01:10:00;;;;;;;15.63;14.02;;;;;;;23.87;83.49;100134.63;4973436;28;20438;-80
2022/07/07 01:12:26;;;;;;;16.77;15.27;;;;;;;23.86;83.63;100140.81;4972265;28;20030;-78
2022/07/07 01:14:51;;;;;;;17.45;15.85;;;;;;;23.55;85.58;100152.06;4971747;28;20062;-78
2022/07/07 01:17:17;;;;;;;16.25;14.75;;;;;;;22.71;87.66;100080.91;4959652;28;20031;-78
2022/07/07 01:19:42;;;;;;;16.85;15.15;;;;;;;23.24;87.11;100138.63;4972458;28;20034;-79
2022/07/07 01:22:15;;;;;;;16.98;15.23;;;;;;;23.27;86.62;100144.72;4972455;28;20026;-79
2022/07/07 01:24:41;;;;;;;18.45;16.77;;;;;;;23.03;86.94;100138.16;4972086;28;20041;-78
2022/07/07 01:27:12;;;;;;;18.30;16.42;;;;;;;22.94;86.98;100127.78;4971937;28;20022;-78
2022/07/07 01:29:42;;;;;;;18.80;17.00;;;;;;;23.12;86.80;100147.66;4972221;28;20027;-79
2022/07/07 01:32:09;;;;;;;18.05;16.27;;;;;;;23.00;86.57;100113.66;4972088;28;20035;-78
2022/07/07 01:34:39;;;;;;;17.80;16.00;;;;;;;23.30;85.82;100142.94;4972145;28;20114;-82
2022/07/07 01:37:05;;;;;;;16.60;15.00;;;;;;;23.29;84.25;100113.09;4971978;28;20055;-82
2022/07/07 01:39:31;;;;;;;16.83;15.23;;;;;;;23.53;83.67;100138.03;4971480;28;20027;-79
2022/07/07 01:41:57;;;;;;;16.75;15.23;;;;;;;23.52;82.15;100133.66;4971881;28;20076;-81
2022/07/07 01:44:22;;;;;;;17.45;15.93;;;;;;;23.57;82.16;100154.63;4964199;28;20409;-77
2022/07/07 01:46:48;;;;;;;16.50;15.00;;;;;;;23.47;82.38;100134.66;4954342;28;20117;-80
2022/07/07 01:49:13;;;;;;;18.08;16.27;;;;;;;23.50;82.32;100132.84;4969061;28;20166;-78
2022/07/07 01:51:39;;;;;;;18.33;16.63;;;;;;;23.45;82.01;100110.13;4960906;28;20050;-79
2022/07/07 01:54:05;;;;;;;17.52;15.73;;;;;;;23.26;82.73;100111.41;4964684;28;20042;-79
2022/07/07 01:56:30;;;;;;;17.63;15.82;;;;;;;23.33;82.99;100141.09;4971751;28;20045;-81
2022/07/07 01:58:55;;;;;;;18.30;16.40;;;;;;;23.28;83.05;100145.59;4971477;28;20514;-77
2022/07/07 02:01:21;;;;;;;15.13;13.73;;;;;;;23.24;83.12;100133.38;4970221;28;20027;-79
2022/07/07 02:03:46;;;;;;;18.83;17.00;;;;;;;23.29;82.52;100134.16;4971471;28;20030;-78
2022/07/07 02:06:12;;;;;;;18.42;16.73;;;;;;;23.18;82.15;100128.22;4971489;28;20395;-76
2022/07/07 02:08:37;;;;;;;18.38;16.55;;;;;;;22.76;83.39;100076.41;4954192;28;20130;-78
2022/07/07 02:11:15;;;;;;;21.08;16.33;;;;;;;23.22;83.38;100140.47;4953995;28;20501;-78
2022/07/07 02:13:48;;;;;;;18.42;16.48;;;;;;;22.94;83.11;100128.69;4951784;28;20040;-79
2022/07/07 02:16:16;;;;;;;24.48;17.23;;;;;;;22.25;84.93;100054.50;4959871;28;20082;-78
2022/07/07 02:18:43;;;;;;;19.42;17.50;;;;;;;22.70;85.93;100124.75;4956157;28;20765;-79
2022/07/07 02:21:11;;;;;;;21.40;17.95;;;;;;;22.93;86.00;100157.69;4948089;28;20121;-79
2022/07/07 02:23:38;;;;;;;20.65;18.42;;;;;;;22.92;85.39;100161.19;4985756;28;20030;-79
2022/07/07 02:26:04;;;;;;;19.77;17.83;;;;;;;23.06;84.79;100167.03;4970932;28;20035;-80
2022/07/07 02:28:29;;;;;;;18.90;16.90;;;;;;;22.84;84.57;100144.69;4953625;28;20030;-79
2022/07/07 02:30:55;;;;;;;21.52;17.95;;;;;;;22.17;84.82;100042.38;4970942;28;20035;-78
2022/07/07 02:33:22;;;;;;;19.17;17.20;;;;;;;22.83;84.63;100154.34;4963796;28;20035;-79
2022/07/07 02:35:49;;;;;;;19.73;17.70;;;;;;;22.74;84.39;100158.03;4955416;28;20023;-79
2022/07/07 02:38:15;;;;;;;19.63;17.58;;;;;;;22.53;86.36;100150.50;4953343;28;20395;-79
2022/07/07 02:40:41;;;;;;;20.60;18.35;;;;;;;22.03;88.62;100122.38;4971331;28;20026;-78
2022/07/07 02:43:07;;;;;;;20.25;18.20;;;;;;;22.16;88.49;100127.41;4959250;28;20027;-78
2022/07/07 02:45:33;;;;;;;20.15;18.02;;;;;;;22.36;88.53;100163.91;4941780;29;20063;-79
2022/07/07 02:47:58;;;;;;;21.73;18.83;;;;;;;21.85;90.64;100149.78;4961092;28;20042;-78
2022/07/07 02:50:24;;;;;;;21.20;19.05;;;;;;;21.41;92.95;100131.13;4945450;28;20518;-79
2022/07/07 02:52:50;;;;;;;22.75;18.75;;;;;;;21.54;92.95;100158.06;4967778;28;20659;-79
2022/07/07 02:55:15;;;;;;;20.95;18.35;;;;;;;21.63;93.38;100165.00;4970943;28;20102;-79
2022/07/07 02:57:40;;;;;;;20.25;18.15;;;;;;;21.72;92.92;100166.63;4956501;28;20035;-78
2022/07/07 03:00:08;;;;;;;20.90;18.77;;;;;;;21.87;91.64;100153.28;4971932;28;20031;-80
2022/07/07 03:02:34;;;;;;;21.05;18.83;;;;;;;21.95;90.83;100138.25;4952451;28;20042;-78
2022/07/07 03:05:00;;;;;;;20.42;18.42;;;;;;;22.11;90.00;100157.28;4967216;28;20172;-78
2022/07/07 03:07:25;;;;;;;19.90;17.90;;;;;;;22.23;88.38;100156.22;4955227;28;20126;-78
2022/07/07 03:09:51;;;;;;;19.65;17.85;;;;;;;22.38;87.25;100160.41;4962203;28;20019;-79
2022/07/07 03:12:16;;;;;;;19.10;17.17;;;;;;;22.29;87.05;100173.66;4974236;28;20031;-79
2022/07/07 03:14:42;;;;;;;21.63;17.85;;;;;;;22.06;86.35;100113.56;4972755;28;20023;-83
2022/07/07 03:17:07;;;;;;;21.30;19.10;;;;;;;22.36;86.46;100159.50;4956919;28;20090;-80
2022/07/07 03:19:34;;;;;;;21.85;19.60;;;;;;;22.20;86.96;100155.41;4973825;28;20042;-78
2022/07/07 03:22:00;;;;;;;20.38;18.27;;;;;;;22.23;87.40;100168.50;4973957;28;20479;-77
2022/07/07 03:24:27;;;;;;;22.42;20.08;;;;;;;22.10;87.55;100147.66;4973912;28;20038;-78
2022/07/07 03:26:53;;;;;;;21.63;19.48;;;;;;;22.07;87.95;100142.47;4956688;28;20110;-80
2022/07/07 03:29:18;;;;;;;22.35;20.05;;;;;;;22.13;87.46;100149.34;4974156;28;20035;-81
2022/07/07 03:31:44;;;;;;;22.73;20.35;;;;;;;21.74;86.57;100079.00;4973734;28;20081;-80
2022/07/07 03:34:09;;;;;;;23.05;20.27;;;;;;;22.32;86.59;100155.22;4955998;28;20122;-79
2022/07/07 03:36:35;;;;;;;23.80;20.40;;;;;;;22.06;88.25;100166.16;4979617;28;20945;-80
2022/07/07 03:39:00;;;;;;;22.08;19.83;;;;;;;21.96;89.30;100158.38;4946995;28;20136;-80
2022/07/07 03:41:26;;;;;;;23.90;20.98;;;;;;;22.05;89.32;100159.16;4954254;28;20043;-79
2022/07/07 03:43:51;;;;;;;28.00;21.08;;;;;;;21.89;90.48;100171.66;4954508;28;20061;-76
2022/07/07 03:46:16;;;;;;;24.60;22.17;;;;;;;21.91;90.67;100159.38;4951927;28;20035;-78
2022/07/07 03:48:42;;;;;;;24.15;21.67;;;;;;;21.87;90.27;100150.66;4917218;29;20028;-78
2022/07/07 03:51:08;;;;;;;23.73;21.35;;;;;;;21.99;89.15;100146.94;4937404;28;20031;-84
2022/07/07 03:53:34;;;;;;;23.52;21.02;;;;;;;21.98;88.94;100158.34;4949074;28;20110;-80
2022/07/07 03:56:00;;;;;;;24.15;21.65;;;;;;;21.25;90.21;100093.69;4921220;29;20115;-80
2022/07/07 03:58:25;;;;;;;23.20;20.73;;;;;;;21.44;90.73;100148.59;4935397;29;20060;-81
2022/07/07 04:00:51;;;;;;;22.92;20.67;;;;;;;21.67;90.58;100176.31;4915576;29;20503;-81
2022/07/07 04:03:16;;;;;;;23.90;21.25;;;;;;;20.65;89.92;100005.19;4939561;29;20607;-79
2022/07/07 04:05:42;;;;;;;23.65;21.20;;;;;;;21.64;90.04;100179.88;4935152;29;20577;-80
2022/07/07 04:08:07;;;;;;;22.27;19.92;;;;;;;21.15;91.15;100158.56;4934809;28;20463;-79
2022/07/07 04:10:33;;;;;;;23.40;21.15;;;;;;;21.16;91.90;100186.53;4935444;29;20028;-80
2022/07/07 04:12:58;;;;;;;21.13;18.98;;;;;;;20.99;91.91;100176.22;4950030;29;20490;-79
2022/07/07 04:15:24;;;;;;;19.75;17.75;;;;;;;20.12;92.62;100062.53;4934445;29;20027;-79
2022/07/07 04:17:49;;;;;;;19.52;17.63;;;;;;;20.62;92.66;100131.09;4935219;29;20038;-80
2022/07/07 04:20:15;;;;;;;20.00;18.00;;;;;;;20.95;92.25;100169.28;4928902;29;20032;-80
2022/07/07 04:22:40;;;;;;;17.85;16.05;;;;;;;20.59;92.38;100113.66;4928978;29;20056;-78
2022/07/07 04:25:06;;;;;;;18.75;16.95;;;;;;;20.97;89.93;100112.41;4924965;29;20024;-80
2022/07/07 04:27:32;;;;;;;19.58;17.65;;;;;;;21.17;89.92;100122.66;4936490;29;20031;-80
2022/07/07 04:29:57;;;;;;;19.20;17.08;;;;;;;21.40;89.93;100160.88;4937800;28;20034;-79
2022/07/07 04:32:22;;;;;;;18.73;16.92;;;;;;;21.33;91.28;100170.59;4936695;29;20501;-80
2022/07/07 04:34:48;;;;;;;18.63;16.58;;;;;;;21.16;92.42;100170.78;4922952;29;20495;-81
2022/07/07 04:37:13;;;;;;;19.50;17.40;;;;;;;21.11;92.22;100177.84;4943795;29;20106;-80
2022/07/07 04:39:39;;;;;;;18.38;16.58;;;;;;;21.00;93.57;100182.34;4952505;28;20038;-78
2022/07/07 04:42:04;;;;;;;17.48;15.88;;;;;;;21.16;93.06;100173.41;4952790;29;20035;-78
2022/07/07 04:44:30;;;;;;;20.15;15.57;;;;;;;21.23;92.79;100183.84;4953478;29;20031;-77
2022/07/07 04:46:55;;;;;;;16.90;15.00;;;;;;;21.03;92.60;100182.31;4951711;28;20039;-78
2022/07/07 04:49:21;;;;;;;19.20;14.70;;;;;;;20.89;93.64;100178.97;4953310;29;20031;-77
2022/07/07 04:51:49;;;;;;;16.65;15.05;;;;;;;20.90;93.91;100154.47;4953643;28;20089;-75
2022/07/07 04:54:15;;;;;;;15.02;13.73;;;;;;;21.22;92.44;100163.72;4935687;29;20122;-80
2022/07/07 04:56:41;;;;;;;14.63;13.23;;;;;;;21.46;91.34;100170.44;4935857;29;20498;-80
2022/07/07 04:59:06;;;;;;;13.73;12.45;;;;;;;21.61;89.62;100175.53;4951973;29;20407;-80
2022/07/07 05:01:32;;;;;;;13.00;11.80;;;;;;;21.58;89.94;100179.94;4952981;29;20407;-79
2022/07/07 05:03:57;;;;;;;13.20;11.80;;;;;;;21.65;88.87;100186.88;4953064;29;20054;-77
2022/07/07 05:06:22;;;;;;;13.13;11.82;;;;;;;21.66;88.65;100188.59;4953364;29;20023;-79
2022/07/07 05:08:48;;;;;;;12.02;10.82;;;;;;;21.41;87.61;100139.00;4953131;29;20031;-78
2022/07/07 05:11:13;;;;;;;13.02;11.20;;;;;;;21.57;88.91;100172.94;4953489;29;20027;-79
2022/07/07 05:13:39;;;;;;;12.57;11.13;;;;;;;21.36;89.81;100188.06;4952109;28;20046;-77
2022/07/07 05:16:05;;;;;;;13.32;12.13;;;;;;;21.43;90.70;100174.00;4952862;28;20031;-81
2022/07/07 05:18:32;;;;;;;14.32;12.93;;;;;;;21.55;87.65;100174.72;4951919;28;20027;-81
2022/07/07 05:20:58;;;;;;;13.00;10.75;;;;;;;21.61;88.64;100167.66;4935468;29;20035;-81
2022/07/07 05:23:25;;;;;;;13.10;11.70;;;;;;;21.64;87.70;100153.59;4952575;29;20035;-79
2022/07/07 05:25:51;;;;;;;32.58;22.42;;;;;;;21.85;86.29;100167.34;4952451;28;20030;-84
2022/07/07 05:28:17;;;;;;;21.83;17.23;;;;;;;21.52;85.50;100123.09;4952313;28;20033;-77
2022/07/07 05:30:42;;;;;;;17.02;14.50;;;;;;;21.58;86.44;100149.31;4952152;29;20023;-77
2022/07/07 05:33:07;;;;;;;14.15;12.10;;;;;;;21.77;85.36;100165.69;4952378;29;20114;-81
2022/07/07 05:35:34;;;;;;;12.57;10.73;;;;;;;21.78;86.72;100158.66;4949824;28;20042;-78
2022/07/07 05:38:01;;;;;;;13.05;11.40;;;;;;;22.03;84.49;100174.94;4952446;29;20130;-82
2022/07/07 05:40:27;;;;;;;15.68;12.02;;;;;;;22.09;87.00;100181.84;4952421;29;20024;-82
2022/07/07 05:42:53;;;;;;;12.57;11.27;;;;;;;22.18;85.85;100186.09;4952433;29;20064;-80
2022/07/07 05:45:19;;;;;;;16.27;13.43;;;;;;;22.32;84.85;100178.00;4952204;28;20031;-80
2022/07/07 05:47:44;;;;;;;11.30;10.20;;;;;;;22.32;84.14;100168.34;4952480;29;20066;-80
2022/07/07 05:50:10;;;;;;;11.90;10.77;;;;;;;22.39;82.59;100184.94;4951124;29;20031;-82
2022/07/07 05:52:36;;;;;;;11.25;10.15;;;;;;;22.52;83.42;100185.56;4934892;29;20402;-78
2022/07/07 05:55:01;;;;;;;12.05;10.82;;;;;;;22.19;85.74;100099.31;4952477;28;20032;-79
2022/07/07 05:57:27;;;;;;;10.73;9.73;;;;;;;22.88;83.58;100185.81;4952188;29;20026;-79
2022/07/07 05:59:52;;;;;;;10.57;8.95;;;;;;;22.97;80.98;100187.41;4952181;29;20035;-79
2022/07/07 06:02:17;;;;;;;10.10;9.13;;;;;;;22.69;80.19;100133.56;4951725;29;20046;-79
2022/07/07 06:04:43;;;;;;;10.38;9.30;;;;;;;23.05;80.65;100177.63;4951857;29;20027;-80
2022/07/07 06:07:08;;;;;;;10.35;9.27;;;;;;;22.97;80.51;100155.81;4952026;29;20558;-79
2022/07/07 06:09:34;;;;;;;9.90;8.98;;;;;;;23.28;80.05;100206.19;4952101;29;20027;-79
2022/07/07 06:11:59;;;;;;;10.05;9.15;;;;;;;23.31;79.60;100208.72;4952209;29;20031;-80
2022/07/07 06:14:26;;;;;;;9.18;8.25;;;;;;;23.00;80.65;100135.56;4950637;29;20403;-81
2022/07/07 06:16:52;;;;;;;8.60;7.80;;;;;;;23.50;80.41;100196.06;4951962;29;20023;-81
2022/07/07 06:19:17;;;;;;;8.27;7.47;;;;;;;23.68;77.63;100205.34;4952137;29;20031;-79
2022/07/07 06:21:43;;;;;;;7.43;6.75;;;;;;;23.67;75.00;100194.84;4934734;29;20039;-82
2022/07/07 06:24:09;;;;;;;8.02;7.32;;;;;;;23.33;73.86;100150.75;4951406;28;20027;-81
2022/07/07 06:26:35;;;;;;;9.35;7.57;;;;;;;23.50;77.76;100153.91;4951498;29;20033;-81
2022/07/07 06:29:00;;;;;;;8.52;7.72;;;;;;;23.95;76.34;100218.88;4910897;29;20197;-81
2022/07/07 06:31:26;;;;;;;8.18;7.38;;;;;;;23.72;71.56;100156.06;4914061;29;20036;-79
2022/07/07 06:33:51;;;;;;;7.57;6.88;;;;;;;24.16;71.72;100209.59;4914895;29;20040;-80
2022/07/07 06:36:16;;;;;;;8.27;7.43;;;;;;;24.08;73.66;100184.31;4914977;29;20056;-79
2022/07/07 06:38:42;;;;;;;8.15;7.28;;;;;;;24.13;71.26;100204.38;4914911;29;20040;-79
2022/07/07 06:41:07;;;;;;;8.73;7.00;;;;;;;24.28;70.44;100197.00;4914732;29;20042;-79
2022/07/07 06:43:33;;;;;;;6.85;6.25;;;;;;;24.32;67.59;100206.56;4914951;29;20036;-78
2022/07/07 06:45:59;;;;;;;7.88;6.50;;;;;;;24.43;68.38;100201.03;4914754;29;20066;-78
2022/07/07 06:48:25;;;;;;;8.15;7.07;;;;;;;24.61;69.03;100204.97;4914441;29;20503;-78
2022/07/07 06:50:50;;;;;;;7.63;6.82;;;;;;;24.72;68.20;100192.41;4914655;29;20042;-78
2022/07/07 06:53:16;;;;;;;8.18;6.43;;;;;;;24.62;64.41;100175.03;4914562;29;20435;-78
2022/07/07 06:55:42;;;;;;;8.07;6.25;;;;;;;24.83;65.83;100192.97;4914571;29;20040;-78
2022/07/07 06:58:08;;;;;;;7.05;6.20;;;;;;;24.99;65.32;100192.59;4915379;29;20043;-79
2022/07/07 07:00:34;;;;;;;8.05;7.28;;;;;;;25.14;67.09;100200.06;4943748;29;20106;-79
2022/07/07 07:02:59;;;;;;;7.00;6.32;;;;;;;25.28;63.19;100196.19;4955064;28;20470;-78
2022/07/07 07:05:26;;;;;;;6.88;6.28;;;;;;;25.42;63.65;100193.16;4955105;29;20086;-79
2022/07/07 07:07:51;;;;;;;6.80;6.20;;;;;;;25.52;63.17;100189.34;4954963;28;20030;-81
2022/07/07 07:10:17;;;;;;;6.63;6.03;;;;;;;25.45;62.09;100190.44;4954810;29;20035;-80
2022/07/07 07:12:42;;;;;;;7.97;6.50;;;;;;;25.58;61.92;100175.94;4954738;29;20019;-80
2022/07/07 07:15:08;;;;;;;8.10;6.15;;;;;;;25.35;61.45;100135.19;4954840;29;20031;-80
2022/07/07 07:17:34;;;;;;;7.10;6.25;;;;;;;25.50;62.07;100177.97;4954889;29;20027;-81
2022/07/07 07:19:59;;;;;;;7.55;6.00;;;;;;;25.44;64.28;100155.22;4954951;29;20034;-79
2022/07/07 07:22:25;;;;;;;7.07;6.07;;;;;;;25.76;60.79;100184.25;4948006;28;20115;-80
2022/07/07 07:24:51;;;;;;;6.80;6.20;;;;;;;25.71;63.57;100167.63;4937657;29;20059;-79
2022/07/07 07:27:17;;;;;;;7.43;5.43;;;;;;;25.74;59.46;100183.41;4936232;29;20067;-78
2022/07/07 07:29:42;;;;;;;7.13;5.82;;;;;;;25.70;61.74;100192.38;4934465;29;20471;-80
2022/07/07 07:32:08;;;;;;;8.27;6.07;;;;;;;25.60;61.03;100197.91;4935328;29;20367;-77
2022/07/07 07:34:34;;;;;;;8.55;5.70;;;;;;;25.79;61.63;100192.06;4966351;28;20038;-83
2022/07/07 07:37:00;;;;;;;8.30;6.15;;;;;;;25.79;60.13;100170.91;4966416;28;20499;-76
2022/07/07 07:39:25;;;;;;;7.05;5.78;;;;;;;25.94;58.55;100174.88;4963524;28;20051;-76
2022/07/07 07:41:51;;;;;;;10.45;5.80;;;;;;;26.09;60.03;100171.75;4965478;28;20031;-82
2022/07/07 07:47:00;;;;;;;7.75;5.55;;;;;;;25.91;56.65;100130.00;4973801;28;20144;-78
2022/07/07 07:49:26;;;;;;;12.35;6.88;;;;;;;26.13;58.58;100175.16;4968463;28;20093;-78
2022/07/07 07:51:51;;;;;;;22.52;8.68;;;;;;;26.26;57.58;100181.78;4937908;29;20031;-81
2022/07/07 07:54:17;;;;;;;8.20;5.50;;;;;;;26.40;56.11;100185.78;4937405;29;20658;-81
2022/07/07 07:56:42;;;;;;;7.40;5.35;;;;;;;26.39;59.77;100165.50;4954334;28;20470;-81
2022/07/07 07:59:07;;;;;;;5.95;5.30;;;;;;;26.54;57.17;100172.06;4954577;29;20384;-80
2022/07/07 08:01:33;;;;;;;6.30;5.53;;;;;;;26.66;58.02;100168.13;4954498;29;20446;-79
2022/07/07 08:03:58;;;;;;;6.50;5.28;;;;;;;26.98;54.07;100190.00;4954639;28;20482;-80
2022/07/07 08:06:24;;;;;;;7.18;5.50;;;;;;;27.08;58.09;100189.63;4954592;29;20023;-80
2022/07/07 08:08:49;;;;;;;5.70;5.00;;;;;;;27.09;52.42;100177.22;4954356;28;20063;-78
2022/07/07 08:11:15;;;;;;;9.18;5.28;;;;;;;27.10;55.02;100192.19;4954274;29;20031;-81
2022/07/07 08:13:40;;;;;;;5.97;5.00;;;;;;;26.92;56.44;100173.41;4956351;28;20066;-80
2022/07/07 08:16:06;;;;;;;5.75;5.20;;;;;;;27.04;57.14;100190.66;4954358;28;20027;-80
2022/07/07 08:18:31;;;;;;;6.72;5.80;;;;;;;27.10;56.62;100200.16;4954075;29;20031;-82
2022/07/07 08:20:57;;;;;;;7.63;5.80;;;;;;;27.02;55.40;100188.97;4954381;29;20023;-82
2022/07/07 08:23:22;;;;;;;13.27;9.40;;;;;;;26.90;58.04;100183.16;4954203;29;20031;-83
2022/07/07 08:25:48;;;;;;;6.25;5.65;;;;;;;26.77;58.09;100203.94;4953785;28;20042;-82
2022/07/07 08:28:13;;;;;;;11.95;5.75;;;;;;;26.52;57.06;100185.34;4954198;29;20106;-83
2022/07/07 08:30:39;;;;;;;7.30;6.60;;;;;;;26.66;60.16;100170.78;4954084;29;20035;-81
2022/07/07 08:33:05;;;;;;;9.30;5.85;;;;;;;26.94;57.10;100189.22;4953791;29;20031;-79
2022/07/07 08:35:31;;;;;;;7.40;5.70;;;;;;;26.80;57.57;100129.69;4953279;29;20046;-80
2022/07/07 08:37:56;;;;;;;7.78;6.15;;;;;;;27.17;55.91;100187.56;4952861;29;20040;-80
2022/07/07 08:40:22;;;;;;;7.60;5.60;;;;;;;27.12;53.78;100185.06;4953331;28;20042;-80
2022/07/07 08:42:48;;;;;;;9.15;6.05;;;;;;;27.04;55.73;100190.66;4953552;29;20114;-81
2022/07/07 08:45:14;;;;;;;8.57;5.70;;;;;;;27.19;56.57;100185.69;4953628;28;20554;-81
2022/07/07 08:47:40;;;;;;;6.05;5.53;;;;;;;27.28;53.27;100158.88;4953357;29;20050;-79
2022/07/07 08:50:06;;;;;;;8.73;5.88;;;;;;;27.68;53.02;100177.72;4953448;28;20030;-80
2022/07/07 08:52:34;;;;;;;6.80;5.35;;;;;;;27.80;55.94;100173.72;4953795;28;20039;-82
2022/07/07 08:55:01;;;;;;;6.13;5.40;;;;;;;27.77;51.86;100132.25;4936079;28;20035;-83
2022/07/07 08:57:26;;;;;;;6.63;5.40;;;;;;;28.02;50.33;100169.25;4953642;29;20031;-81
2022/07/07 08:59:56;;;;;;;5.55;5.00;;;;;;;28.05;50.37;100157.69;4953764;28;20027;-80
2022/07/07 09:02:21;;;;;;;;;;;;;;;27.93;53.08;100172.31;4954082;28;20034;-81
2022/07/07 09:04:47;;;;;;;5.35;4.85;;;;;;;27.90;49.23;100173.28;4935887;29;19911;-85
2022/07/07 09:07:12;;;;;;;7.13;5.40;;;;;;;27.70;50.80;100168.78;4931525;29;20103;-83
2022/07/07 09:09:49;;;;;;;6.25;5.50;;;;;;;27.91;52.78;100175.03;4931291;29;20175;-83
2022/07/07 09:12:18;;;;;;;6.82;5.07;;;;;;;27.79;50.50;100109.19;4931544;29;20529;-83
2022/07/07 09:14:46;;;;;;;7.10;5.33;;;;;;;27.90;49.82;100135.28;4912601;29;20040;-81
2022/07/07 09:17:27;;;;;;;7.43;5.22;;;;;;;28.12;50.29;100172.44;4913457;29;20048;-83
2022/07/07 09:19:59;;;;;;;6.60;5.18;;;;;;;28.09;50.02;100161.97;4918397;29;20044;-82
2022/07/07 09:22:40;;;;;;;5.88;4.45;;;;;;;28.14;49.96;100169.72;4918406;29;20044;-83
2022/07/07 09:25:07;;;;;;;6.60;4.78;;;;;;;28.08;48.80;100160.25;4912439;29;20531;-81
2022/07/07 09:27:33;;;;;;;5.28;4.55;;;;;;;28.36;49.68;100162.63;4912449;29;20040;-82
2022/07/07 09:29:59;;;;;;;6.63;4.22;;;;;;;28.37;47.73;100126.28;4912531;29;20063;-83
2022/07/07 09:32:24;;;;;;;6.50;4.40;;;;;;;28.57;47.60;100152.00;4912300;29;20036;-82
2022/07/07 09:34:50;;;;;;;5.82;5.00;;;;;;;28.67;48.40;100141.84;4912047;29;20389;-81
2022/07/07 09:39:59;;;;;;;6.72;4.75;;;;;;;29.36;46.57;100165.38;4931101;29;20520;-81
2022/07/07 09:42:27;;;;;;;5.03;4.55;;;;;;;29.30;45.94;100159.47;4930965;29;20036;-81
2022/07/07 09:45:12;;;;;;;5.05;4.55;;;;;;;29.43;45.63;100157.94;4934044;28;20070;-80
2022/07/07 09:47:38;;;;;;;6.28;4.80;;;;;;;29.44;44.91;100151.72;4952315;29;20118;-81
2022/07/07 09:50:15;;;;;;;6.00;5.40;;;;;;;29.60;47.32;100156.31;4952844;28;20113;-86
2022/07/07 09:52:48;;;;;;;7.30;5.20;;;;;;;29.79;47.18;100143.00;4952899;29;20027;-86
2022/07/07 09:55:14;;;;;;;6.00;5.10;;;;;;;29.76;44.92;100146.66;4952816;29;20043;-82
2022/07/07 09:57:42;;;;;;;5.47;4.97;;;;;;;29.95;43.36;100137.81;4951411;29;20181;-80
2022/07/07 10:00:09;;;;;;;7.00;5.50;;;;;;;30.00;45.43;100152.59;4952475;28;20421;-81
2022/07/07 10:02:36;;;;;;;5.82;4.82;;;;;;;29.28;46.56;100138.22;4950189;29;20414;-81
2022/07/07 10:05:04;;;;;;;5.05;4.45;;;;;;;29.23;44.45;100142.06;4954951;28;20463;-81
2022/07/07 10:07:32;;;;;;;9.23;4.78;;;;;;;29.00;43.83;100146.63;4959145;28;20039;-81
2022/07/07 10:10:01;;;;;;;5.25;4.70;;;;;;;29.28;47.71;100140.03;4958906;28;20027;-80
2022/07/07 10:12:28;;;;;;;;;;;;;;;29.73;46.81;100144.13;4941096;29;20164;-81
2022/07/07 10:15:02;;;;;;;6.93;5.47;;;;;;;29.78;45.78;100144.75;4958814;28;19914;-81
2022/07/07 10:17:30;;;;;;;6.70;5.15;;;;;;;29.50;45.57;100103.53;4959165;29;20083;-80
2022/07/07 10:19:56;;;;;;;8.60;5.50;;;;;;;29.62;43.75;100133.16;4959009;28;20027;-79
2022/07/07 10:22:27;;;;;;;8.65;5.05;;;;;;;29.36;45.18;100132.59;4958438;28;20035;-81
2022/07/07 10:24:54;;;;;;;6.80;5.10;;;;;;;29.19;44.92;100136.00;4958773;28;20027;-81
2022/07/07 10:27:23;;;;;;;5.75;4.40;;;;;;;29.52;45.65;100144.25;4941496;29;20039;-78
2022/07/07 10:29:50;;;;;;;5.95;4.97;;;;;;;29.83;44.30;100137.44;4958751;28;20494;-80
2022/07/07 10:32:27;;;;;;;5.63;4.43;;;;;;;30.03;44.77;100124.97;4959048;29;20126;-80
2022/07/07 10:34:56;;;;;;;5.18;4.60;;;;;;;30.38;43.14;100132.13;4958880;28;20023;-80
2022/07/07 10:37:23;;;;;;;9.70;4.82;;;;;;;30.60;44.44;100127.44;4958449;28;20055;-81
2022/07/07 10:39:51;;;;;;;5.57;4.63;;;;;;;30.40;42.59;100109.78;4958821;29;20041;-81
2022/07/07 10:42:16;;;;;;;5.75;4.55;;;;;;;30.38;43.71;100125.00;4958429;29;20463;-84
2022/07/07 10:44:49;;;;;;;6.60;4.28;;;;;;;30.53;42.86;100104.75;4956855;28;20118;-80
2022/07/07 10:47:17;;;;;;;9.20;4.47;;;;;;;31.03;43.93;100113.63;4959060;28;20086;-81
2022/07/07 10:49:44;;;;;;;4.50;4.05;;;;;;;31.19;44.65;100105.69;4957810;28;20031;-81
2022/07/07 10:52:12;;;;;;;4.32;3.92;;;;;;;31.21;40.98;100100.28;4958053;28;20371;-80
2022/07/07 10:54:43;;;;;;;5.15;4.15;;;;;;;31.16;41.66;100105.00;4956920;28;20051;-80
2022/07/07 10:57:10;;;;;;;4.97;4.10;;;;;;;31.54;41.07;100117.97;4941070;29;20078;-83
2022/07/07 11:00:09;;;;;;;5.80;4.25;;;;;;;31.76;39.10;100105.16;4958684;28;20051;-81
2022/07/07 11:02:37;;;;;;;4.45;4.05;;;;;;;32.10;37.76;100103.22;4956864;28;20037;-80
2022/07/07 11:05:15;;;;;;;7.20;3.90;;;;;;;32.22;40.54;100109.66;4958114;28;20031;-79
2022/07/07 11:07:56;;;;;;;4.25;3.85;;;;;;;32.16;38.12;100053.06;4956832;29;20042;-81
2022/07/07 11:10:54;;;;;;;4.10;3.70;;;;;;;32.65;39.89;100100.00;4956389;29;20023;-80
2022/07/07 11:13:32;;;;;;;6.20;3.90;;;;;;;32.85;39.37;100096.09;4931190;29;20039;-80
2022/07/07 11:16:12;;;;;;;6.18;3.58;;;;;;;32.87;37.80;100103.06;4916639;29;20335;-79
2022/07/07 11:18:38;;;;;;;5.15;3.42;;;;;;;32.70;37.37;100093.41;4913821;29;20032;-80
2022/07/07 11:21:05;;;;;;;3.90;3.10;;;;;;;32.39;38.00;100051.69;4898324;29;20063;-78